Time;durP1;ratioP1;P1;durP2;ratioP2;P2;SDS_P1;SDS_P2;PMS_P1;PMS_P2;Temp;Humidity;BMP_temperature;BMP_pressure;BME280_temperature;BME280_humidity;BME280_pressure;Samples;Min_cycle;Max_cycle;Signal;HPM_P1;HPM_P2
2023/05/25 00:02:25;;;;;;;13.05;9.20;;;11.70;99.90;;;;;;5016984;28;20410;-52
2023/05/25 00:05:13;;;;;;;13.38;8.73;;;11.70;99.90;;;;;;5017107;28;20072;-49
2023/05/25 00:08:00;;;;;;;14.68;8.88;;;11.60;99.90;;;;;;5013611;28;20033;-45
2023/05/25 00:10:46;;;;;;;13.68;8.05;;;11.60;99.90;;;;;;5013147;28;20033;-49
2023/05/25 00:13:32;;;;;;;9.98;8.23;;;11.50;99.90;;;;;;4999873;28;20044;-46
2023/05/25 00:16:18;;;;;;;10.68;7.57;;;11.50;99.90;;;;;;5013614;28;20041;-46
2023/05/25 00:19:04;;;;;;;13.57;8.35;;;11.60;99.90;;;;;;4996958;28;20033;-47
2023/05/25 00:21:51;;;;;;;13.27;9.00;;;11.60;99.90;;;;;;5013868;28;20040;-45
2023/05/25 00:24:38;;;;;;;11.88;8.27;;;11.60;99.90;;;;;;5014503;28;20030;-47
2023/05/25 00:27:24;;;;;;;18.85;9.50;;;11.60;99.90;;;;;;5014076;28;20022;-49
2023/05/25 00:30:10;;;;;;;11.88;8.32;;;11.50;99.90;;;;;;5003969;28;20537;-48
2023/05/25 00:32:56;;;;;;;14.13;8.32;;;11.60;99.90;;;;;;4995159;28;20043;-48
2023/05/25 00:35:43;;;;;;;16.33;8.57;;;11.60;99.90;;;;;;5014210;28;20399;-47
2023/05/25 00:38:29;;;;;;;13.10;8.38;;;11.60;99.90;;;;;;5015451;28;20030;-46
2023/05/25 00:41:17;;;;;;;13.60;8.35;;;11.60;99.90;;;;;;5013869;28;20022;-48
2023/05/25 00:44:03;;;;;;;12.77;9.15;;;11.60;99.90;;;;;;5016947;28;20105;-47
2023/05/25 00:46:51;;;;;;;10.25;8.10;;;11.60;99.90;;;;;;5017409;28;20033;-45
2023/05/25 00:49:37;;;;;;;13.27;8.82;;;11.60;99.90;;;;;;4997929;28;20042;-47
2023/05/25 00:52:25;;;;;;;11.70;8.65;;;11.60;99.90;;;;;;5011464;28;20040;-47
2023/05/25 00:55:17;;;;;;;15.93;9.15;;;11.50;99.90;;;;;;5013677;28;20422;-45
2023/05/25 00:58:05;;;;;;;12.60;8.50;;;11.40;99.90;;;;;;5012231;28;20037;-46
2023/05/25 01:00:56;;;;;;;11.00;8.23;;;11.40;99.90;;;;;;5012032;28;20030;-48
2023/05/25 01:03:52;;;;;;;12.45;8.88;;;11.40;99.90;;;;;;5012377;28;20042;-45
2023/05/25 01:06:42;;;;;;;12.23;9.07;;;11.40;99.90;;;;;;5012734;28;20057;-47
2023/05/25 01:09:33;;;;;;;13.23;8.65;;;11.40;99.90;;;;;;5012407;28;20486;-46
2023/05/25 01:12:21;;;;;;;15.95;9.35;;;11.40;99.90;;;;;;5012729;28;20092;-51
2023/05/25 01:15:08;;;;;;;14.20;9.48;;;11.30;99.90;;;;;;4993714;28;20602;-45
2023/05/25 01:17:58;;;;;;;14.05;9.18;;;11.30;99.90;;;;;;4999632;28;20037;-48
2023/05/25 01:20:58;;;;;;;16.25;9.77;;;11.20;99.90;;;;;;5012422;28;20041;-46
2023/05/25 01:23:51;;;;;;;17.20;9.27;;;11.20;99.90;;;;;;5012755;28;20029;-46
2023/05/25 01:26:53;;;;;;;15.45;9.40;;;11.20;99.90;;;;;;5012440;28;20062;-48
2023/05/25 01:29:44;;;;;;;12.07;9.70;;;11.20;99.90;;;;;;4992435;28;20038;-50
2023/05/25 01:32:31;;;;;;;14.55;9.52;;;11.10;99.90;;;;;;5010959;28;20498;-47
2023/05/25 01:35:19;;;;;;;15.30;10.27;;;11.00;99.90;;;;;;5012625;28;20022;-47
2023/05/25 01:38:05;;;;;;;15.00;10.10;;;11.00;99.90;;;;;;5012861;28;20022;-46
2023/05/25 01:40:51;;;;;;;16.15;10.48;;;11.00;99.90;;;;;;5012872;28;20135;-46
2023/05/25 01:43:37;;;;;;;15.80;10.05;;;11.00;99.90;;;;;;5011831;28;20041;-51
2023/05/25 01:46:37;;;;;;;17.75;11.38;;;10.90;99.90;;;;;;5011804;28;20033;-51
2023/05/25 01:49:48;;;;;;;16.40;10.73;;;10.80;99.90;;;;;;5012742;28;20042;-54
2023/05/25 01:52:37;;;;;;;19.73;11.23;;;10.80;99.90;;;;;;5012236;28;20100;-50
2023/05/25 01:55:26;;;;;;;20.33;10.63;;;10.80;99.90;;;;;;5012376;28;20022;-51
2023/05/25 01:58:14;;;;;;;14.50;9.73;;;10.80;99.90;;;;;;5011741;28;20075;-51
2023/05/25 02:01:00;;;;;;;16.65;10.48;;;10.90;99.90;;;;;;5012397;28;20092;-51
2023/05/25 02:03:50;;;;;;;18.92;12.00;;;10.90;99.90;;;;;;5012257;28;20105;-49
2023/05/25 02:06:37;;;;;;;17.40;9.77;;;11.00;99.90;;;;;;5011902;28;20498;-49
2023/05/25 02:09:22;;;;;;;16.67;10.48;;;10.90;99.90;;;;;;5011215;28;20040;-49
2023/05/25 02:12:08;;;;;;;15.32;11.32;;;10.90;99.90;;;;;;5011160;28;20034;-49
2023/05/25 02:14:55;;;;;;;15.55;10.38;;;10.80;99.90;;;;;;5011828;28;20042;-49
2023/05/25 02:17:42;;;;;;;16.23;11.73;;;10.60;99.90;;;;;;5010557;28;20491;-50
2023/05/25 02:20:28;;;;;;;17.38;10.82;;;10.60;99.90;;;;;;5012595;28;20034;-49
2023/05/25 02:23:14;;;;;;;17.67;11.68;;;10.60;99.90;;;;;;5011447;28;20026;-52
2023/05/25 02:25:59;;;;;;;14.48;10.55;;;10.50;99.90;;;;;;5011851;28;20022;-53
2023/05/25 02:28:45;;;;;;;15.13;11.00;;;10.50;99.90;;;;;;5011067;28;20041;-50
2023/05/25 02:31:32;;;;;;;18.83;11.60;;;10.50;99.90;;;;;;5012193;28;20065;-47
2023/05/25 02:34:18;;;;;;;15.35;11.38;;;10.60;99.90;;;;;;5011419;28;20029;-50
2023/05/25 02:37:04;;;;;;;14.35;11.38;;;10.60;99.90;;;;;;5011866;28;20026;-50
2023/05/25 02:39:50;;;;;;;16.17;10.55;;;10.60;99.90;;;;;;5010887;28;20037;-51
2023/05/25 02:42:36;;;;;;;14.98;10.55;;;10.60;99.90;;;;;;5011666;28;20037;-50
2023/05/25 02:45:22;;;;;;;17.30;10.82;;;10.60;99.90;;;;;;5011241;28;20065;-50
2023/05/25 02:48:08;;;;;;;18.50;11.38;;;10.50;99.90;;;;;;4998180;28;20026;-50
2023/05/25 02:50:54;;;;;;;15.35;10.90;;;10.60;99.90;;;;;;5011478;28;20037;-52
2023/05/25 02:53:40;;;;;;;16.30;11.05;;;10.50;99.90;;;;;;5011338;28;20068;-53
2023/05/25 02:56:26;;;;;;;16.55;10.52;;;10.40;99.90;;;;;;5009546;28;20030;-51
2023/05/25 02:59:12;;;;;;;12.85;11.18;;;10.40;99.90;;;;;;5007027;28;20038;-49
2023/05/25 03:01:58;;;;;;;16.58;11.65;;;10.40;99.90;;;;;;4994050;28;20026;-50
2023/05/25 03:04:44;;;;;;;15.05;10.57;;;10.40;99.90;;;;;;5010944;28;20028;-48
2023/05/25 03:07:30;;;;;;;14.98;11.93;;;10.40;99.90;;;;;;5010433;28;20064;-48
2023/05/25 03:10:16;;;;;;;18.23;12.30;;;10.40;99.90;;;;;;5010503;28;20494;-48
2023/05/25 03:13:02;;;;;;;16.83;12.00;;;10.30;99.90;;;;;;5011574;28;20093;-50
2023/05/25 03:15:48;;;;;;;15.52;10.23;;;10.30;99.90;;;;;;5010357;28;20030;-50
2023/05/25 03:18:35;;;;;;;14.00;11.05;;;10.30;99.90;;;;;;5010435;28;20390;-48
2023/05/25 03:21:21;;;;;;;13.63;10.98;;;10.30;99.90;;;;;;5011610;28;20461;-50
2023/05/25 03:24:07;;;;;;;19.92;11.70;;;10.30;99.90;;;;;;5011441;28;20026;-49
2023/05/25 03:26:53;;;;;;;15.25;11.23;;;10.20;99.90;;;;;;5012065;28;20076;-46
2023/05/25 03:29:39;;;;;;;14.90;10.75;;;10.20;99.90;;;;;;5012821;28;20041;-48
2023/05/25 03:32:25;;;;;;;15.95;10.35;;;10.30;99.90;;;;;;5013308;28;20034;-48
2023/05/25 03:35:11;;;;;;;13.80;10.35;;;10.30;99.90;;;;;;5012773;28;20108;-50
2023/05/25 03:37:57;;;;;;;17.33;11.13;;;10.40;99.90;;;;;;5012496;28;20022;-48
2023/05/25 03:40:42;;;;;;;16.02;11.20;;;10.40;99.90;;;;;;5010269;28;20038;-47
2023/05/25 03:43:29;;;;;;;15.40;11.07;;;10.40;99.90;;;;;;5014443;28;20037;-47
2023/05/25 03:46:15;;;;;;;13.88;11.60;;;10.40;99.90;;;;;;5012612;28;20034;-48
2023/05/25 03:49:01;;;;;;;17.10;11.50;;;10.40;99.90;;;;;;5014771;28;20073;-48
2023/05/25 03:51:47;;;;;;;14.55;10.80;;;10.40;99.90;;;;;;5014802;28;20030;-48
2023/05/25 03:54:33;;;;;;;15.45;10.35;;;10.40;99.90;;;;;;5015008;28;20042;-48
2023/05/25 03:57:19;;;;;;;15.57;11.20;;;10.40;99.90;;;;;;5014981;28;20026;-49
2023/05/25 04:00:05;;;;;;;17.92;12.30;;;10.40;99.90;;;;;;5013531;28;20045;-54
2023/05/25 04:02:51;;;;;;;15.45;10.70;;;10.50;99.90;;;;;;5015014;28;20030;-52
2023/05/25 04:05:37;;;;;;;16.63;10.95;;;10.50;99.90;;;;;;5012708;28;20452;-54
2023/05/25 04:08:23;;;;;;;15.95;11.60;;;10.50;99.90;;;;;;5010054;28;20037;-50
2023/05/25 04:11:10;;;;;;;17.13;12.00;;;10.40;99.90;;;;;;5014404;28;20045;-51
2023/05/25 04:13:56;;;;;;;22.17;13.70;;;10.40;99.90;;;;;;5014542;28;20038;-50
2023/05/25 04:16:42;;;;;;;18.50;13.07;;;10.40;99.90;;;;;;5013321;28;20026;-50
2023/05/25 04:19:28;;;;;;;17.55;12.45;;;10.30;99.90;;;;;;4983762;28;20030;-52
2023/05/25 04:22:14;;;;;;;16.85;11.27;;;10.50;99.90;;;;;;5013691;28;20419;-55
2023/05/25 04:25:01;;;;;;;19.02;11.82;;;10.60;99.90;;;;;;5012806;28;20490;-52
2023/05/25 04:27:47;;;;;;;18.42;12.02;;;10.60;99.90;;;;;;5009138;28;20034;-56
2023/05/25 04:30:35;;;;;;;17.67;12.45;;;10.70;99.90;;;;;;5014669;28;20034;-52
2023/05/25 04:33:21;;;;;;;19.73;11.95;;;10.70;99.90;;;;;;5014708;28;20040;-50
2023/05/25 04:36:10;;;;;;;16.23;12.18;;;10.70;99.90;;;;;;5014191;28;20058;-50
2023/05/25 04:38:56;;;;;;;20.70;12.85;;;10.80;99.90;;;;;;5014368;28;20573;-49
2023/05/25 04:41:42;;;;;;;18.85;12.13;;;10.80;99.90;;;;;;5012295;28;20041;-53
2023/05/25 04:44:31;;;;;;;27.60;14.82;;;10.80;99.90;;;;;;5013147;28;20053;-49
2023/05/25 04:47:18;;;;;;;20.45;13.98;;;10.70;99.90;;;;;;5013672;28;20026;-50
2023/05/25 04:50:04;;;;;;;23.98;15.50;;;10.70;99.90;;;;;;5013415;28;20041;-50
2023/05/25 04:52:50;;;;;;;25.67;14.43;;;10.80;99.90;;;;;;5013732;28;20030;-46
2023/05/25 04:55:36;;;;;;;25.80;15.00;;;10.80;99.90;;;;;;5011572;28;20038;-45
2023/05/25 04:58:22;;;;;;;20.85;14.57;;;10.80;99.90;;;;;;5013337;28;20521;-49
2023/05/25 05:01:08;;;;;;;25.45;14.73;;;10.80;99.90;;;;;;5014802;28;20037;-46
2023/05/25 05:03:54;;;;;;;21.35;15.13;;;10.70;99.90;;;;;;5013211;28;20076;-46
2023/05/25 05:06:40;;;;;;;26.42;16.38;;;10.80;99.90;;;;;;5012499;28;20025;-49
2023/05/25 05:09:26;;;;;;;29.65;15.15;;;10.90;99.90;;;;;;5015687;28;20034;-47
2023/05/25 05:12:12;;;;;;;22.80;14.80;;;10.80;99.90;;;;;;5013403;28;20518;-48
2023/05/25 05:14:58;;;;;;;23.17;14.70;;;11.00;99.90;;;;;;5016369;28;20096;-49
2023/05/25 05:17:44;;;;;;;24.95;17.02;;;11.10;99.90;;;;;;5014842;28;20090;-49
2023/05/25 05:20:30;;;;;;;28.08;16.90;;;11.10;99.90;;;;;;5012747;28;20113;-44
2023/05/25 05:23:16;;;;;;;26.95;16.75;;;11.10;99.90;;;;;;5012037;28;20037;-51
2023/05/25 05:26:03;;;;;;;34.22;17.65;;;11.10;99.90;;;;;;5013258;28;20406;-50
2023/05/25 05:28:51;;;;;;;32.38;18.25;;;11.10;99.90;;;;;;5012966;28;20037;-52
2023/05/25 05:31:37;;;;;;;27.58;16.50;;;11.20;99.90;;;;;;5011370;28;20026;-49
2023/05/25 05:34:23;;;;;;;27.33;18.15;;;11.30;99.90;;;;;;5012054;28;20068;-51
2023/05/25 05:37:09;;;;;;;32.28;18.58;;;11.30;99.90;;;;;;5011713;28;20576;-52
2023/05/25 05:39:55;;;;;;;36.50;18.88;;;11.40;99.90;;;;;;5012582;28;20057;-50
2023/05/25 05:42:41;;;;;;;35.17;19.80;;;11.50;99.90;;;;;;5012320;28;20223;-51
2023/05/25 05:45:27;;;;;;;33.72;20.40;;;11.40;99.90;;;;;;5011641;28;20073;-49
2023/05/25 05:48:13;;;;;;;33.75;19.15;;;11.60;99.90;;;;;;5012272;28;20524;-45
2023/05/25 05:50:59;;;;;;;40.53;21.95;;;11.60;99.90;;;;;;5010980;28;20033;-44
2023/05/25 05:53:45;;;;;;;38.17;20.42;;;11.80;99.90;;;;;;5011348;28;20060;-45
2023/05/25 05:56:31;;;;;;;37.95;20.90;;;11.80;99.90;;;;;;5012734;28;20122;-46
2023/05/25 05:59:17;;;;;;;39.53;21.70;;;12.00;99.90;;;;;;5011642;28;20045;-45
2023/05/25 06:02:03;;;;;;;39.88;21.92;;;12.00;99.90;;;;;;5012498;28;20030;-44
2023/05/25 06:04:49;;;;;;;44.55;23.05;;;12.30;99.90;;;;;;5012492;28;20033;-44
2023/05/25 06:07:36;;;;;;;38.90;22.08;;;12.50;99.90;;;;;;5010882;28;20399;-46
2023/05/25 06:10:22;;;;;;;39.75;22.13;;;12.70;99.90;;;;;;5012961;28;20030;-51
2023/05/25 06:13:08;;;;;;;45.53;24.42;;;12.90;99.90;;;;;;5012317;28;20033;-55
2023/05/25 06:15:54;;;;;;;42.70;24.10;;;13.00;99.90;;;;;;5013323;28;20026;-51
2023/05/25 06:18:40;;;;;;;38.85;23.98;;;12.90;99.90;;;;;;4994276;28;20038;-51
2023/05/25 06:21:26;;;;;;;43.95;24.33;;;12.80;99.90;;;;;;5012880;28;20411;-55
2023/05/25 06:24:14;;;;;;;41.15;23.63;;;13.00;99.90;;;;;;5011753;28;20041;-53
2023/05/25 06:27:02;;;;;;;36.72;23.35;;;12.80;99.90;;;;;;5012860;28;20184;-48
2023/05/25 06:29:47;;;;;;;41.22;24.50;;;12.90;99.90;;;;;;5012622;28;20053;-48
2023/05/25 06:32:33;;;;;;;47.45;25.23;;;13.00;99.90;;;;;;5011085;28;20403;-48
2023/05/25 06:35:19;;;;;;;41.55;25.13;;;13.00;99.90;;;;;;5011840;28;20022;-48
2023/05/25 06:38:05;;;;;;;43.20;24.30;;;13.00;99.90;;;;;;4997223;28;20029;-48
2023/05/25 06:40:51;;;;;;;41.45;24.17;;;13.10;99.90;;;;;;5011252;28;20118;-50
2023/05/25 06:43:37;;;;;;;41.35;24.55;;;13.20;99.90;;;;;;5012314;28;20033;-48
2023/05/25 06:46:23;;;;;;;39.85;23.40;;;13.30;99.90;;;;;;5011486;28;20112;-48
2023/05/25 06:49:09;;;;;;;45.05;25.85;;;13.20;99.90;;;;;;5011805;28;20121;-48
2023/05/25 06:51:55;;;;;;;42.80;26.00;;;13.10;99.90;;;;;;5012180;28;20038;-51
2023/05/25 06:54:41;;;;;;;45.72;24.88;;;13.20;99.90;;;;;;5010692;28;20030;-50
2023/05/25 06:57:27;;;;;;;44.30;24.00;;;13.20;99.90;;;;;;5010824;28;20474;-50
2023/05/25 07:00:13;;;;;;;47.65;25.52;;;13.00;99.90;;;;;;5011977;28;20033;-51
2023/05/25 07:03:00;;;;;;;39.92;23.02;;;13.00;99.90;;;;;;5008410;28;20467;-48
2023/05/25 07:05:46;;;;;;;38.88;22.45;;;13.30;99.90;;;;;;5009421;28;20053;-49
2023/05/25 07:08:32;;;;;;;44.53;24.30;;;13.30;99.90;;;;;;5009229;28;20035;-50
2023/05/25 07:11:19;;;;;;;40.40;24.58;;;13.50;99.90;;;;;;5003066;28;20038;-50
2023/05/25 07:14:05;;;;;;;50.05;24.63;;;13.60;99.90;;;;;;5002155;28;20022;-48
2023/05/25 07:16:51;;;;;;;43.65;22.83;;;13.40;99.90;;;;;;5003884;28;20030;-51
2023/05/25 07:19:37;;;;;;;41.50;23.80;;;13.50;99.90;;;;;;5012186;28;20491;-48
2023/05/25 07:22:25;;;;;;;42.60;23.48;;;13.70;99.90;;;;;;5011511;28;20038;-51
2023/05/25 07:25:11;;;;;;;44.03;25.85;;;13.80;99.90;;;;;;5007062;28;20026;-49
2023/05/25 07:27:57;;;;;;;41.50;25.40;;;13.80;99.90;;;;;;5009017;28;20029;-50
2023/05/25 07:30:43;;;;;;;38.88;24.17;;;13.70;99.90;;;;;;5015440;28;20033;-48
2023/05/25 07:33:29;;;;;;;34.72;23.50;;;13.90;99.90;;;;;;5012613;28;20553;-50
2023/05/25 07:36:16;;;;;;;40.53;25.77;;;14.00;99.90;;;;;;5010971;28;20057;-48
2023/05/25 07:39:02;;;;;;;41.85;24.90;;;14.20;99.90;;;;;;5013917;28;20448;-50
2023/05/25 07:41:48;;;;;;;49.42;26.67;;;14.20;99.90;;;;;;5012350;28;20054;-50
2023/05/25 07:44:34;;;;;;;44.30;24.70;;;14.00;99.90;;;;;;5012721;28;20525;-49
2023/05/25 07:47:20;;;;;;;40.00;24.85;;;14.10;99.90;;;;;;5014654;28;20532;-49
2023/05/25 07:50:07;;;;;;;42.63;23.38;;;14.20;99.90;;;;;;5012707;28;20397;-49
2023/05/25 07:52:53;;;;;;;40.97;25.15;;;14.20;99.90;;;;;;5015164;28;20574;-51
2023/05/25 07:55:38;;;;;;;40.42;23.90;;;14.20;99.90;;;;;;5013341;28;20519;-50
2023/05/25 07:58:24;;;;;;;40.72;24.20;;;14.30;99.90;;;;;;5014588;28;20033;-46
2023/05/25 08:01:10;;;;;;;42.17;25.50;;;14.50;99.90;;;;;;5013490;28;20034;-46
2023/05/25 08:03:57;;;;;;;38.90;24.40;;;14.80;99.90;;;;;;5012706;28;20116;-53
2023/05/25 08:06:43;;;;;;;31.60;21.30;;;15.30;99.90;;;;;;5014876;28;20449;-50
2023/05/25 08:09:29;;;;;;;36.97;23.42;;;15.60;99.90;;;;;;5015360;28;20026;-49
2023/05/25 08:12:15;;;;;;;35.17;21.55;;;15.60;99.90;;;;;;5014768;28;20022;-49
2023/05/25 08:15:01;;;;;;;38.10;21.20;;;15.60;99.90;;;;;;5013160;28;20034;-54
2023/05/25 08:17:49;;;;;;;39.90;20.88;;;15.50;99.90;;;;;;5014501;28;20025;-54
2023/05/25 08:20:36;;;;;;;25.40;17.88;;;15.40;99.90;;;;;;5014861;28;20030;-50
2023/05/25 08:23:22;;;;;;;28.15;18.23;;;15.30;99.90;;;;;;5010367;28;20049;-48
2023/05/25 08:26:11;;;;;;;32.08;19.90;;;15.30;99.90;;;;;;5014161;28;20076;-50
2023/05/25 08:28:57;;;;;;;31.88;19.90;;;15.20;99.90;;;;;;5010410;28;20030;-48
2023/05/25 08:31:48;;;;;;;27.85;17.23;;;15.10;99.90;;;;;;5013471;28;20026;-48
2023/05/25 08:34:34;;;;;;;27.75;16.58;;;15.40;99.90;;;;;;5014146;28;20108;-49
2023/05/25 08:37:22;;;;;;;33.28;17.73;;;15.90;99.90;;;;;;5013137;28;20674;-50
2023/05/25 08:40:14;;;;;;;23.65;15.43;;;16.00;99.90;;;;;;5014512;28;20124;-49
2023/05/25 08:43:00;;;;;;;26.35;14.23;;;16.10;99.90;;;;;;5014391;28;20026;-49
2023/05/25 08:45:46;;;;;;;23.60;14.48;;;15.90;99.90;;;;;;5014563;28;20028;-50
2023/05/25 08:48:34;;;;;;;22.30;12.95;;;15.70;99.90;;;;;;5013624;28;20034;-48
2023/05/25 08:51:20;;;;;;;27.42;14.75;;;15.80;99.80;;;;;;5014263;28;20036;-51
2023/05/25 08:54:12;;;;;;;16.10;10.93;;;15.90;99.90;;;;;;5013694;28;20049;-51
2023/05/25 08:57:20;;;;;;;17.15;11.40;;;15.80;99.20;;;;;;5013421;28;20095;-49
2023/05/25 09:00:10;;;;;;;22.85;11.18;;;15.90;99.30;;;;;;5013466;28;20110;-48
2023/05/25 09:03:16;;;;;;;17.63;9.93;;;16.30;98.40;;;;;;5012319;28;20541;-54
2023/05/25 09:06:03;;;;;;;21.38;11.15;;;16.40;97.20;;;;;;5013628;28;20072;-50
2023/05/25 09:08:49;;;;;;;19.08;10.90;;;16.80;96.80;;;;;;5013941;28;20061;-54
2023/05/25 09:11:36;;;;;;;18.42;10.70;;;17.10;96.80;;;;;;5011954;28;20487;-54
2023/05/25 09:14:23;;;;;;;19.00;10.43;;;17.20;96.00;;;;;;5013506;28;20101;-53
2023/05/25 09:17:09;;;;;;;14.05;8.30;;;17.10;96.00;;;;;;5013536;28;20080;-55
2023/05/25 09:19:55;;;;;;;14.80;8.07;;;17.00;95.80;;;;;;5013772;28;20045;-48
2023/05/25 09:22:41;;;;;;;16.23;9.23;;;16.50;94.80;;;;;;5013408;28;20491;-48
2023/05/25 09:25:28;;;;;;;19.50;10.98;;;16.60;95.70;;;;;;5012506;28;20531;-51
2023/05/25 09:28:13;;;;;;;21.85;12.05;;;16.60;96.60;;;;;;5013859;28;20082;-50
2023/05/25 09:31:00;;;;;;;18.13;9.65;;;16.50;96.50;;;;;;5012367;28;20032;-50
2023/05/25 09:33:46;;;;;;;18.35;10.35;;;16.40;97.00;;;;;;5012502;28;20351;-49
2023/05/25 09:36:34;;;;;;;19.33;9.90;;;16.30;96.90;;;;;;5012273;28;20026;-52
2023/05/25 09:39:21;;;;;;;20.55;10.18;;;16.20;96.90;;;;;;5013004;28;20108;-51
2023/05/25 09:42:06;;;;;;;18.17;9.27;;;16.20;96.70;;;;;;5013285;28;20030;-50
2023/05/25 09:44:52;;;;;;;17.35;10.02;;;16.30;95.70;;;;;;5012240;28;20041;-48
2023/05/25 09:47:39;;;;;;;18.35;9.30;;;16.50;95.20;;;;;;5011851;28;20045;-48
2023/05/25 09:50:28;;;;;;;15.93;8.95;;;16.70;94.20;;;;;;5011553;28;20425;-50
2023/05/25 09:53:14;;;;;;;18.30;9.02;;;17.20;93.40;;;;;;5011660;28;20025;-51
2023/05/25 09:56:01;;;;;;;19.58;8.43;;;17.40;93.00;;;;;;5011851;28;20409;-53
2023/05/25 09:58:47;;;;;;;23.70;9.73;;;17.60;93.20;;;;;;5013215;28;20371;-48
2023/05/25 10:01:35;;;;;;;18.83;9.70;;;17.30;93.80;;;;;;5011286;28;20509;-48
2023/05/25 10:04:21;;;;;;;19.27;9.43;;;16.60;95.20;;;;;;5011979;28;20499;-49
2023/05/25 10:07:07;;;;;;;17.58;10.27;;;16.60;95.00;;;;;;5011563;28;20071;-50
2023/05/25 10:09:54;;;;;;;18.42;8.85;;;16.40;95.20;;;;;;5012255;28;20395;-50
2023/05/25 10:12:42;;;;;;;20.67;10.02;;;16.50;94.90;;;;;;5012873;28;20092;-48
2023/05/25 10:15:29;;;;;;;12.27;8.65;;;16.70;94.40;;;;;;5012983;28;20104;-50
2023/05/25 10:18:17;;;;;;;18.50;9.15;;;16.70;94.30;;;;;;5011908;28;20026;-49
2023/05/25 10:21:06;;;;;;;14.68;8.18;;;16.80;94.10;;;;;;5013026;28;20030;-52
2023/05/25 10:23:56;;;;;;;18.27;8.57;;;17.10;93.90;;;;;;5012853;28;20451;-50
2023/05/25 10:26:48;;;;;;;13.75;8.45;;;17.40;93.10;;;;;;5012707;28;20061;-49
2023/05/25 10:29:36;;;;;;;16.10;8.52;;;17.60;92.70;;;;;;5013276;28;20037;-50
2023/05/25 10:32:23;;;;;;;17.50;8.68;;;17.60;91.70;;;;;;5013156;28;20505;-54
2023/05/25 10:35:10;;;;;;;18.35;8.55;;;17.50;91.70;;;;;;5011788;28;20029;-48
2023/05/25 10:37:58;;;;;;;14.43;8.57;;;17.40;92.40;;;;;;5011615;28;20033;-50
2023/05/25 10:40:51;;;;;;;14.95;7.93;;;17.60;91.90;;;;;;5012565;28;20037;-50
2023/05/25 10:43:39;;;;;;;14.90;8.40;;;17.80;91.30;;;;;;5010488;28;20030;-51
2023/05/25 10:46:25;;;;;;;16.02;7.88;;;18.00;90.20;;;;;;5012181;28;20072;-49
2023/05/25 10:49:11;;;;;;;20.35;9.45;;;18.20;90.00;;;;;;5011668;28;20034;-51
2023/05/25 10:52:02;;;;;;;21.20;9.75;;;18.00;92.10;;;;;;4995738;28;20105;-52
2023/05/25 10:54:48;;;;;;;18.27;10.05;;;18.10;92.40;;;;;;5011801;28;20022;-51
2023/05/25 10:57:34;;;;;;;16.38;8.27;;;17.90;92.90;;;;;;5010958;28;20040;-49
2023/05/25 11:00:20;;;;;;;15.93;8.20;;;17.90;92.60;;;;;;5011033;28;20458;-54
2023/05/25 11:03:07;;;;;;;14.70;8.48;;;17.90;92.40;;;;;;5011718;28;20740;-54
2023/05/25 11:05:53;;;;;;;14.10;8.30;;;17.90;91.90;;;;;;5012080;28;20494;-54
2023/05/25 11:08:54;;;;;;;17.27;8.13;;;17.90;91.40;;;;;;5011461;28;20082;-48
2023/05/25 11:11:44;;;;;;;12.70;8.23;;;18.00;91.50;;;;;;5011952;28;20022;-48
2023/05/25 11:14:37;;;;;;;13.25;7.82;;;18.40;92.00;;;;;;5011709;28;20018;-52
2023/05/25 11:17:23;;;;;;;14.93;7.55;;;18.60;91.30;;;;;;5010399;28;20175;-51
2023/05/25 11:20:21;;;;;;;15.60;9.02;;;18.60;90.60;;;;;;5001753;28;20069;-50
2023/05/25 11:23:22;;;;;;;15.82;8.32;;;18.60;90.80;;;;;;5010778;28;20026;-53
2023/05/25 11:26:23;;;;;;;16.20;9.13;;;18.20;91.30;;;;;;5010553;28;20060;-47
2023/05/25 11:29:15;;;;;;;17.48;9.98;;;18.20;91.00;;;;;;5011668;28;20100;-47
2023/05/25 11:32:01;;;;;;;18.92;7.97;;;18.50;91.20;;;;;;5011111;28;20093;-46
2023/05/25 11:34:47;;;;;;;12.57;8.15;;;18.80;90.70;;;;;;5010299;28;20394;-51
2023/05/25 11:37:33;;;;;;;15.52;7.90;;;18.90;90.10;;;;;;5010781;28;20117;-51
2023/05/25 11:40:22;;;;;;;18.65;8.27;;;19.30;88.40;;;;;;5010182;28;20513;-49
2023/05/25 11:43:10;;;;;;;17.35;8.20;;;19.20;88.60;;;;;;5010322;28;20038;-49
2023/05/25 11:45:56;;;;;;;10.25;8.18;;;18.90;88.70;;;;;;5011007;28;20026;-51
2023/05/25 11:48:52;;;;;;;13.73;8.05;;;18.80;90.40;;;;;;5010712;28;20038;-49
2023/05/25 11:51:38;;;;;;;11.15;7.85;;;18.60;90.80;;;;;;5011207;28;20029;-47
2023/05/25 11:54:26;;;;;;;13.70;7.82;;;18.60;90.60;;;;;;5010550;28;20447;-51
2023/05/25 11:57:25;;;;;;;16.35;7.80;;;18.80;90.50;;;;;;5010616;28;20097;-52
2023/05/25 12:00:12;;;;;;;16.30;8.10;;;19.00;90.40;;;;;;5010724;28;20034;-49
2023/05/25 12:02:58;;;;;;;15.25;8.13;;;19.20;90.00;;;;;;5012053;28;20026;-53
2023/05/25 12:05:44;;;;;;;11.15;7.40;;;19.00;88.20;;;;;;5014447;28;20034;-50
2023/05/25 12:08:35;;;;;;;13.52;7.22;;;19.30;87.90;;;;;;5014236;28;20034;-51
2023/05/25 12:11:37;;;;;;;17.42;7.63;;;19.80;86.40;;;;;;5014257;28;20407;-49
2023/05/25 12:14:23;;;;;;;14.48;7.72;;;20.30;85.60;;;;;;5013723;28;20097;-52
2023/05/25 12:17:09;;;;;;;15.10;8.48;;;20.40;84.60;;;;;;5014278;28;20105;-51
2023/05/25 12:19:55;;;;;;;21.77;10.90;;;19.90;86.00;;;;;;5014394;28;20041;-50
2023/05/25 12:22:42;;;;;;;16.63;7.60;;;19.30;87.40;;;;;;5014552;28;20034;-49
2023/05/25 12:25:28;;;;;;;17.40;9.70;;;19.20;90.00;;;;;;5014287;28;20671;-49
2023/05/25 12:28:15;;;;;;;19.08;8.40;;;18.90;90.90;;;;;;5013136;28;20563;-48
2023/05/25 12:31:21;;;;;;;15.35;9.60;;;18.80;91.10;;;;;;5014695;28;20030;-49
2023/05/25 12:34:14;;;;;;;17.33;10.18;;;18.70;91.10;;;;;;5014547;28;20034;-51
2023/05/25 12:37:00;;;;;;;16.67;9.07;;;18.90;91.40;;;;;;5014930;28;20151;-49
2023/05/25 12:39:47;;;;;;;17.15;9.73;;;19.30;90.80;;;;;;5014825;28;20030;-47
2023/05/25 12:42:33;;;;;;;17.05;9.25;;;19.10;90.50;;;;;;5014365;28;20565;-52
2023/05/25 12:45:19;;;;;;;23.35;16.40;;;19.30;90.30;;;;;;5015097;28;20033;-51
2023/05/25 12:48:06;;;;;;;18.48;10.00;;;19.70;90.20;;;;;;5015436;28;20030;-52
2023/05/25 12:50:57;;;;;;;18.42;9.65;;;19.90;89.10;;;;;;5014283;28;20398;-50
2023/05/25 12:54:01;;;;;;;14.88;8.30;;;19.70;89.70;;;;;;5013303;28;20022;-50
2023/05/25 12:56:55;;;;;;;12.75;7.85;;;19.50;88.40;;;;;;5014696;28;20026;-47
2023/05/25 12:59:45;;;;;;;14.05;7.97;;;19.50;87.90;;;;;;5014506;28;20052;-49
2023/05/25 13:02:38;;;;;;;17.73;9.02;;;19.60;87.50;;;;;;5014256;28;20054;-49
2023/05/25 13:05:29;;;;;;;21.40;10.30;;;19.40;88.70;;;;;;5014515;28;20483;-51
2023/05/25 13:08:21;;;;;;;15.48;8.85;;;19.40;88.60;;;;;;5014827;28;20030;-51
2023/05/25 13:11:07;;;;;;;14.45;8.70;;;19.50;87.70;;;;;;5012796;28;20037;-49
2023/05/25 13:13:53;;;;;;;15.48;8.98;;;19.60;86.90;;;;;;5012737;28;20065;-48
2023/05/25 13:16:39;;;;;;;16.08;9.43;;;19.80;86.60;;;;;;5013283;28;20034;-50
2023/05/25 13:19:25;;;;;;;17.95;9.40;;;19.70;88.80;;;;;;5013741;28;20053;-51
2023/05/25 13:22:11;;;;;;;15.73;9.30;;;19.30;90.20;;;;;;5013399;28;20088;-49
2023/05/25 13:24:57;;;;;;;17.27;9.20;;;19.10;90.40;;;;;;5013248;28;20168;-50
2023/05/25 13:27:45;;;;;;;18.85;8.77;;;18.90;90.60;;;;;;5013336;28;20410;-49
2023/05/25 13:30:31;;;;;;;20.90;9.55;;;19.00;90.20;;;;;;5014431;28;20121;-52
2023/05/25 13:33:17;;;;;;;14.27;8.48;;;19.30;89.30;;;;;;5013462;28;20088;-52
2023/05/25 13:36:14;;;;;;;18.35;10.43;;;19.60;88.40;;;;;;5012880;28;20093;-51
2023/05/25 13:39:04;;;;;;;13.35;8.00;;;19.80;87.80;;;;;;4993773;28;20057;-49
2023/05/25 13:41:50;;;;;;;12.65;8.45;;;20.10;86.90;;;;;;4993597;28;20026;-49
2023/05/25 13:44:36;;;;;;;12.40;7.22;;;20.50;85.50;;;;;;5006475;28;20110;-50
2023/05/25 13:47:21;;;;;;;13.25;8.23;;;21.20;84.70;;;;;;4992546;28;20026;-51
2023/05/25 13:50:08;;;;;;;14.38;8.60;;;21.50;84.10;;;;;;4992586;28;20030;-49
2023/05/25 13:52:54;;;;;;;14.02;8.43;;;21.40;82.80;;;;;;5008399;28;20029;-48
2023/05/25 13:55:40;;;;;;;17.40;9.75;;;21.20;83.20;;;;;;5011455;28;20109;-48
2023/05/25 13:58:26;;;;;;;15.07;9.45;;;20.80;84.40;;;;;;5007783;28;20032;-47
2023/05/25 14:01:12;;;;;;;16.17;9.40;;;20.50;85.90;;;;;;5012648;28;20073;-48
2023/05/25 14:03:58;;;;;;;13.88;9.93;;;20.10;87.10;;;;;;5012080;28;20575;-48
2023/05/25 14:06:45;;;;;;;15.10;9.90;;;19.70;87.30;;;;;;5012002;28;20034;-47
2023/05/25 14:09:31;;;;;;;18.02;10.07;;;19.50;88.40;;;;;;5001184;28;20041;-45
2023/05/25 14:12:17;;;;;;;14.23;9.45;;;19.70;87.80;;;;;;5009495;28;20022;-46
2023/05/25 14:15:04;;;;;;;14.25;9.77;;;20.10;87.20;;;;;;5011696;28;20026;-47